Map

Track Data

SID SEASON NUMBER BASIN SUBBASIN NAME ISO_TIME NATURE LAT LON WMO_WIND WMO_PRES WMO_AGENCY TRACK_TYPE DIST2LAND LANDFALL IFLAG USA_AGENCY USA_ATCF_ID USA_LAT USA_LON USA_RECORD USA_STATUS USA_WIND USA_PRES USA_SSHS USA_R34_NE USA_R34_SE USA_R34_SW USA_R34_NW USA_R50_NE USA_R50_SE USA_R50_SW USA_R50_NW USA_R64_NE USA_R64_SE USA_R64_SW USA_R64_NW USA_POCI USA_ROCI USA_RMW USA_EYE TOKYO_LAT TOKYO_LON TOKYO_GRADE TOKYO_WIND TOKYO_PRES TOKYO_R50_DIR TOKYO_R50_LONG TOKYO_R50_SHORT TOKYO_R30_DIR TOKYO_R30_LONG TOKYO_R30_SHORT TOKYO_LAND CMA_LAT CMA_LON CMA_CAT CMA_WIND CMA_PRES HKO_LAT HKO_LON HKO_CAT HKO_WIND HKO_PRES NEWDELHI_LAT NEWDELHI_LON NEWDELHI_GRADE NEWDELHI_WIND NEWDELHI_PRES NEWDELHI_CI NEWDELHI_DP NEWDELHI_POCI REUNION_LAT REUNION_LON REUNION_TYPE REUNION_WIND REUNION_PRES REUNION_TNUM REUNION_CI REUNION_RMW REUNION_R34_NE REUNION_R34_SE REUNION_R34_SW REUNION_R34_NW REUNION_R50_NE REUNION_R50_SE REUNION_R50_SW REUNION_R50_NW REUNION_R64_NE REUNION_R64_SE REUNION_R64_SW REUNION_R64_NW BOM_LAT BOM_LON BOM_TYPE BOM_WIND BOM_PRES BOM_TNUM BOM_CI BOM_RMW BOM_R34_NE BOM_R34_SE BOM_R34_SW BOM_R34_NW BOM_R50_NE BOM_R50_SE BOM_R50_SW BOM_R50_NW BOM_R64_NE BOM_R64_SE BOM_R64_SW BOM_R64_NW BOM_ROCI BOM_POCI BOM_EYE BOM_POS_METHOD BOM_PRES_METHOD NADI_LAT NADI_LON NADI_CAT NADI_WIND NADI_PRES WELLINGTON_LAT WELLINGTON_LON WELLINGTON_WIND WELLINGTON_PRES DS824_LAT DS824_LON DS824_STAGE DS824_WIND DS824_PRES TD9636_LAT TD9636_LON TD9636_STAGE TD9636_WIND TD9636_PRES TD9635_LAT TD9635_LON TD9635_WIND TD9635_PRES TD9635_ROCI NEUMANN_LAT NEUMANN_LON NEUMANN_CLASS NEUMANN_WIND NEUMANN_PRES MLC_LAT MLC_LON MLC_CLASS MLC_WIND MLC_PRES USA_GUST BOM_GUST BOM_GUST_PER REUNION_GUST REUNION_GUST_PER USA_SEAHGT USA_SEARAD_NE USA_SEARAD_SE USA_SEARAD_SW USA_SEARAD_NW STORM_SPEED STORM_DIR
1932246N19087 1932 46 NI BB NOT_NAMED 1932-09-02 00:00:00 TS 18.8000 86.9000 main 144 144 _________O____ -1 18.8000 86.9000 TC 30 1 307
1932246N19087 1932 46 NI BB NOT_NAMED 1932-09-02 03:00:00 TS 18.8333 86.8667 main 144 129 _________PO___ -1 18.8500 86.8500 TC 30 18.8000 86.9000 1 1 315
1932246N19087 1932 46 NI BB NOT_NAMED 1932-09-02 06:00:00 TS 18.8844 86.8169 main 129 129 _________OP___ -1 18.9000 86.8000 TC 30 18.8610 86.8424 1 1 316
1932246N19087 1932 46 NI BB NOT_NAMED 1932-09-02 09:00:00 TS 18.9361 86.7662 main 129 116 _________PP___ -1 18.9500 86.7500 TC 30 18.9176 86.7878 1 1 319
1932246N19087 1932 46 NI BB NOT_NAMED 1932-09-02 12:00:00 TS 18.9827 86.7196 main 116 116 _________OP___ -1 19.0000 86.7000 TC 30 18.9654 86.7393 1 1 318
1932246N19087 1932 46 NI BB NOT_NAMED 1932-09-02 15:00:00 TS 19.0250 86.6787 main 116 102 _________PO___ -1 19.0500 86.6575 TC 30 19.0000 86.7000 1 1 314
1932246N19087 1932 46 NI BB NOT_NAMED 1932-09-02 18:00:00 TS 19.0607 86.6342 main 102 102 _________OP___ -1 19.1000 86.6000 TC 30 19.0214 86.6684 1 1 307
1932246N19087 1932 46 NI BB NOT_NAMED 1932-09-02 21:00:00 TS 19.0873 86.5809 main 102 98 _________PP___ -1 19.1274 86.5374 TC 30 19.0472 86.6244 1 2 300
1932246N19087 1932 46 NI BB NOT_NAMED 1932-09-03 00:00:00 TS 19.1497 86.4716 main 98 70 _________OP___ -1 19.2000 86.4000 TC 30 19.0994 86.5432 1 4 303
1932246N19087 1932 46 NI BB NOT_NAMED 1932-09-03 03:00:00 TS 19.2850 86.2650 main 70 39 _________PO___ -1 19.3701 86.1301 TC 30 19.2000 86.4000 1 6 306
1932246N19087 1932 46 NI BB NOT_NAMED 1932-09-03 06:00:00 TS 19.4875 85.9745 main 39 11 _________OP___ -1 19.6000 85.8000 TC 30 19.3751 86.1489 1 7 308
1932246N19087 1932 46 NI BB NOT_NAMED 1932-09-03 09:00:00 TS 19.7240 85.6616 main 11 0 _________PP___ -1 19.8500 85.4851 TC 30 19.5981 85.8382 1 8 310
1932246N19087 1932 46 NI BB NOT_NAMED 1932-09-03 12:00:00 TS 19.9735 85.3541 main 0 0 _________OP___ -1 20.1000 85.2000 TC 30 19.8470 85.5083 1 7 312
1932246N19087 1932 46 NI BB NOT_NAMED 1932-09-03 15:00:00 TS 20.2000 85.0924 main 0 0 _________PO___ -1 20.2999 84.9848 TC 30 20.1000 85.2000 1 6 315
1932246N19087 1932 46 NI BB NOT_NAMED 1932-09-03 18:00:00 TS 20.3980 84.9013 main 0 0 _________OP___ -1 20.5000 84.8000 TC 30 20.2960 85.0026 1 5 319
1932246N19087 1932 46 NI BB NOT_NAMED 1932-09-03 21:00:00 TS 20.6045 84.7252 main 0 0 _________PP___ -1 20.7124 84.6222 TC 30 20.4966 84.8282 1 6 322
1932246N19087 1932 46 NI BB NOT_NAMED 1932-09-04 00:00:00 TS 20.8620 84.5199 main 0 0 _________OP___ -1 21.0000 84.4000 TC 30 20.7240 84.6398 1 8 324
1932246N19087 1932 46 NI BB NOT_NAMED 1932-09-04 03:00:00 TS 21.2175 84.2438 main 0 0 _________PO___ -1 21.4349 84.0876 TC 30 21.0000 84.4000 1 10 323
1932246N19087 1932 46 NI BB NOT_NAMED 1932-09-04 06:00:00 TS 21.6431 83.8874 main 0 0 _________OP___ -1 21.9000 83.7000 TC 30 21.3862 84.0747 1 11 320
1932246N19087 1932 46 NI BB NOT_NAMED 1932-09-04 09:00:00 TS 22.0511 83.4819 main 0 0 _________PP___ -1 22.2874 83.2725 TC 30 21.8149 83.6914 1 11 314
1932246N19087 1932 46 NI BB NOT_NAMED 1932-09-04 12:00:00 TS 22.4180 83.0311 main 0 0 _________OP___ -1 22.6000 82.8000 TC 30 22.2361 83.2622 1 11 308
1932246N19087 1932 46 NI BB NOT_NAMED 1932-09-04 15:00:00 TS 22.7150 82.5536 main 0 0 _________PO___ -1 22.8299 82.3073 TC 30 22.6000 82.8000 1 10 299
1932246N19087 1932 46 NI BB NOT_NAMED 1932-09-04 18:00:00 TS 22.9283 82.0418 main 0 0 _________OP___ -1 23.0000 81.8000 TC 30 22.8567 82.2837 1 10 292
1932246N19087 1932 46 NI BB NOT_NAMED 1932-09-04 21:00:00 TS 23.1069 81.5011 main 0 0 _________PP___ -1 23.1652 81.2550 TC 30 23.0486 81.7471 1 10 289
1932246N19087 1932 46 NI BB NOT_NAMED 1932-09-05 00:00:00 TS 23.2456 81.0185 main 0 0 _________OP___ -1 23.3000 80.8000 TC 30 23.1911 81.2370 1 8 288
1932246N19087 1932 46 NI BB NOT_NAMED 1932-09-05 03:00:00 TS 23.3573 80.6812 main 0 0 _________PO___ -1 23.4147 80.5623 TC 30 23.3000 80.8000 1 6 292
1932246N19087 1932 46 NI BB NOT_NAMED 1932-09-05 06:00:00 TS 23.4555 80.4456 main 0 0 _________OP___ -1 23.5000 80.4000 TC 30 23.4109 80.4912 1 5 291
1932246N19087 1932 46 NI BB NOT_NAMED 1932-09-05 09:00:00 TS 23.5257 80.2046 main 0 0 _________PP___ -1 23.5575 80.1500 TC 30 23.4939 80.2593 1 4 286
1932246N19087 1932 46 NI BB NOT_NAMED 1932-09-05 12:00:00 TS 23.5775 79.9864 main 0 0 _________OP___ -1 23.6000 79.9000 TC 30 23.5550 80.0727 1 4 285
1932246N19087 1932 46 NI BB NOT_NAMED 1932-09-05 15:00:00 TS 23.6287 79.7963 main 0 0 _________PO___ -1 23.6574 79.6925 TC 30 23.6000 79.9000 1 4 285
1932246N19087 1932 46 NI BB NOT_NAMED 1932-09-05 18:00:00 TS 23.6716 79.6045 main 0 0 _________OP___ -1 23.7000 79.5000 TC 30 23.6431 79.7089 1 4 280
1932246N19087 1932 46 NI BB NOT_NAMED 1932-09-05 21:00:00 TS 23.6897 79.4187 main 0 0 _________PP___ -1 23.7074 79.3150 TC 30 23.6721 79.5224 1 4 274
1932246N19087 1932 46 NI BB NOT_NAMED 1932-09-06 00:00:00 TS 23.6950 79.2123 main 0 0 _________OP___ -1 23.7000 79.1000 TC 30 23.6900 79.3246 1 4 271
1932246N19087 1932 46 NI BB NOT_NAMED 1932-09-06 03:00:00 TS 23.7000 78.9575 main 0 0 _________PO___ -1 23.7000 78.8150 TC 30 23.7000 79.1000 1 5 269
1932246N19087 1932 46 NI BB NOT_NAMED 1932-09-06 06:00:00 TS 23.6895 78.6520 main 0 0 _________OP___ -1 23.7000 78.5000 TC 30 23.6791 78.8040 1 6 267
1932246N19087 1932 46 NI BB NOT_NAMED 1932-09-06 09:00:00 TS 23.6665 78.3384 main 0 0 _________PP___ -1 23.6775 78.1924 TC 30 23.6555 78.4844 1 6 269
1932246N19087 1932 46 NI BB NOT_NAMED 1932-09-06 12:00:00 TS 23.6771 78.0364 main 0 0 _________OP___ -1 23.7000 77.9000 TC 30 23.6541 78.1727 1 5 280
1932246N19087 1932 46 NI AS NOT_NAMED 1932-09-06 15:00:00 TS 23.7600 77.7563 main 0 0 _________PO___ -1 23.8200 77.6127 TC 30 23.7000 77.9000 1 5 297
1932246N19087 1932 46 NI AS NOT_NAMED 1932-09-06 18:00:00 TS 23.9183 77.5273 main 0 0 _________OP___ -1 24.0000 77.4000 TC 30 23.8366 77.6547 1 5 315
1932246N19087 1932 46 NI AS NOT_NAMED 1932-09-06 21:00:00 TS 24.1098 77.3742 main 0 0 _________PP___ -1 24.1999 77.2900 TC 30 24.0197 77.4584 1 4 334
1932246N19087 1932 46 NI AS NOT_NAMED 1932-09-07 00:00:00 TS 24.3089 77.3164 main 0 0 _________OP___ -1 24.4000 77.3000 TC 30 24.2179 77.3328 1 4 356
1932246N19087 1932 46 NI AS NOT_NAMED 1932-09-07 03:00:00 TS 24.4863 77.3562 main 0 0 _________PO___ -1 24.5725 77.4124 TC 30 24.4000 77.3000 1 3 26
1932246N19087 1932 46 NI AS NOT_NAMED 1932-09-07 06:00:00 TS 24.6189 77.4865 main 0 0 _________OP___ -1 24.7000 77.6000 TC 30 24.5378 77.3729 1 4 51
1932246N19087 1932 46 NI AS NOT_NAMED 1932-09-07 09:00:00 TS 24.7125 77.6647 main 0 0 _________PP___ -1 24.7725 77.7925 TC 30 24.6525 77.5368 1 4 67
1932246N19087 1932 46 NI AS NOT_NAMED 1932-09-07 12:00:00 TS 24.7705 77.8787 main 0 0 _________OP___ -1 24.8000 78.0000 TC 30 24.7410 77.7574 1 4 77
1932246N19087 1932 46 NI BB NOT_NAMED 1932-09-07 15:00:00 TS 24.8037 78.0963 main 0 0 _________PO___ -1 24.8074 78.1925 TC 30 24.8000 78.0000 1 4 85
1932246N19087 1932 46 NI BB NOT_NAMED 1932-09-07 18:00:00 TS 24.7999 78.2895 main 0 0 _________OP___ -1 24.8000 78.4000 TC 30 24.7999 78.1789 1 4 93
1932246N19087 1932 46 NI BB NOT_NAMED 1932-09-07 21:00:00 TS 24.7845 78.4869 main 0 0 _________PP___ -1 24.7922 78.5976 TC 30 24.7768 78.3762 1 4 92
1932246N19087 1932 46 NI BB NOT_NAMED 1932-09-08 00:00:00 TS 24.7827 78.7552 main 0 0 _________OP___ -1 24.8000 78.9000 TC 30 24.7653 78.6104 1 6 88
1932246N19087 1932 46 NI BB NOT_NAMED 1932-09-08 03:00:00 TS 24.8028 79.1714 main 0 0 _________PO___ -1 24.8056 79.4427 TC 30 24.8000 78.9000 1 8 82
1932246N19087 1932 46 NI BB NOT_NAMED 1932-09-08 06:00:00 TS 24.8988 79.6698 main 0 0 _________OP___ -1 24.9000 80.0000 TC 30 24.8976 79.3396 1 9 71
1932246N19087 1932 46 NI BB NOT_NAMED 1932-09-08 09:00:00 TS 25.0933 80.1065 main 0 0 _________PP___ -1 25.1398 80.3896 TC 30 25.0469 79.8233 1 8 56
1932246N19087 1932 46 NI BB NOT_NAMED 1932-09-08 12:00:00 TS 25.3738 80.4353 main 0 0 _________OP___ -1 25.5000 80.6000 TC 30 25.2475 80.2706 1 8 35
1932246N19087 1932 46 NI BB NOT_NAMED 1932-09-08 15:00:00 TS 25.7287 80.5978 main 0 0 _________PO___ -1 25.9574 80.5956 TC 30 25.5000 80.6000 1 8 11
1932246N19087 1932 46 NI BB NOT_NAMED 1932-09-08 18:00:00 TS 26.1279 80.6008 main 0 0 _________OP___ -1 26.4000 80.5000 TC 30 25.8558 80.7016 1 8 0
1932246N19087 1932 46 NI BB NOT_NAMED 1932-09-08 21:00:00 TS 26.4846 80.5859 main 0 0 _________PP___ -1 26.7175 80.4924 TC 30 26.2517 80.6793 1 6 355
1932246N19087 1932 46 NI BB NOT_NAMED 1932-09-09 00:00:00 TS 26.7609 80.5461 main 0 0 _________OP___ -1 26.9000 80.5000 TC 30 26.6218 80.5922 1 4 350
1932246N19087 1932 46 NI BB NOT_NAMED 1932-09-09 03:00:00 TS 26.9187 80.5000 main 0 0 _________PO___ -1 26.9375 80.5000 TC 30 26.9000 80.5000 1 2 348
1932246N19087 1932 46 NI BB NOT_NAMED 1932-09-09 06:00:00 TS 26.9503 80.4964 main 0 0 _________OP___ -1 26.9000 80.5000 TC 30 27.0006 80.4927 1 0 329
1932246N19087 1932 46 NI BB NOT_NAMED 1932-09-09 09:00:00 TS 26.9525 80.4962 main 0 0 _________PP___ -1 26.9000 80.5000 TC 30 27.0050 80.4924 1 0 0
1932246N19087 1932 46 NI BB NOT_NAMED 1932-09-09 12:00:00 TS 26.9284 80.4979 main 0 0 _________OP___ -1 26.9000 80.5000 TC 30 26.9569 80.4959 1 1 160
1932246N19087 1932 46 NI BB NOT_NAMED 1932-09-09 15:00:00 TS 26.9000 80.5000 main 0 0 _________PO___ -1 26.9000 80.5000 TC 30 26.9000 80.5000 1 0 167
1932246N19087 1932 46 NI BB NOT_NAMED 1932-09-09 18:00:00 TS 26.8898 80.5040 main 0 0 _________OP___ -1 26.9000 80.5000 TC 30 26.8797 80.5081 1 0 0
1932246N19087 1932 46 NI BB NOT_NAMED 1932-09-09 21:00:00 TS 26.8737 80.5112 main 0 0 _________PP___ -1 26.8850 80.5075 TC 30 26.8625 80.5149 1 0 0
1932246N19087 1932 46 NI BB NOT_NAMED 1932-09-10 00:00:00 TS 26.8820 80.5072 main 0 0 _________OP___ -1 26.9000 80.5000 TC 30 26.8640 80.5143 1 1 325
1932246N19087 1932 46 NI BB NOT_NAMED 1932-09-10 03:00:00 TS 26.9388 80.4788 main 0 0 _________PO___ -1 26.9775 80.4575 TC 30 26.9000 80.5000 1 2 337
1932246N19087 1932 46 NI BB NOT_NAMED 1932-09-10 06:00:00 TS 27.0445 80.4362 main 0 0 _________OP___ -1 27.1000 80.4000 TC 30 26.9890 80.4725 1 3 343
1932246N19087 1932 46 NI BB NOT_NAMED 1932-09-10 09:00:00 TS 27.1775 80.3937 main 0 0 _________PP___ -1 27.2425 80.3575 TC 30 27.1125 80.4300 1 3 343
1932246N19087 1932 46 NI BB NOT_NAMED 1932-09-10 12:00:00 TS 27.3273 80.3362 main 0 0 _________OP___ -1 27.4000 80.3000 TC 30 27.2547 80.3725 1 3 337
1932246N19087 1932 46 NI BB NOT_NAMED 1932-09-10 15:00:00 TS 27.4788 80.2538 main 0 0 _________PO___ -1 27.5575 80.2075 TC 30 27.4000 80.3000 1 3 331
1932246N19087 1932 46 NI BB NOT_NAMED 1932-09-10 18:00:00 TS 27.6063 80.1647 main 0 0 _________OP___ -1 27.7000 80.1000 TC 30 27.5360 80.2132 1 3 326
1932246N19087 1932 46 NI BB NOT_NAMED 1932-09-10 21:00:00 TS 27.7216 80.0681 main 0 0 _________PP___ -1 27.8100 79.9975 TC 30 27.6626 80.1152 1 3 322
1932246N19087 1932 46 NI BB NOT_NAMED 1932-09-11 00:00:00 TS 27.8219 79.9730 main 0 0 _________OP___ -1 27.9000 79.9000 TC 30 27.7829 80.0096 1 2 321
1932246N19087 1932 46 NI BB NOT_NAMED 1932-09-11 03:00:00 NR 27.9000 79.9000 main 0 __________O___ -1 TC 27.9000 79.9000 1 2 318

About IBTrACS Database

This database is a web-friendly format of International Best Track Archive for Climate Stewardship (IBTrACS), a global best track data archive curated by NOAA dating back to 1842.

Updated: 2021-12-08